Time;durP1;ratioP1;P1;durP2;ratioP2;P2;SDS_P1;SDS_P2;PMS_P1;PMS_P2;Temp;Humidity;BMP_temperature;BMP_pressure;BME280_temperature;BME280_humidity;BME280_pressure;Samples;Min_cycle;Max_cycle;Signal;HPM_P1;HPM_P2
2021/10/27 00:02:12;;;;;;;16.13;7.22;;;5.70;89.30;;;;;;6219442;22;20012;-77
2021/10/27 00:04:38;;;;;;;13.60;6.47;;;5.70;89.80;;;;;;6245544;23;20030;-78
2021/10/27 00:07:04;;;;;;;16.92;6.50;;;5.50;90.50;;;;;;6246138;23;20012;-78
2021/10/27 00:09:30;;;;;;;15.75;6.15;;;5.30;90.80;;;;;;6245440;23;20004;-77
2021/10/27 00:11:55;;;;;;;12.98;6.97;;;5.30;89.50;;;;;;6217202;23;20398;-77
2021/10/27 00:14:21;;;;;;;12.77;5.90;;;5.30;88.70;;;;;;6218707;23;20086;-77
2021/10/27 00:16:47;;;;;;;12.80;6.35;;;5.40;88.40;;;;;;6219319;23;20266;-78
2021/10/27 00:19:13;;;;;;;15.20;7.10;;;5.60;88.20;;;;;;6218606;23;20104;-78
2021/10/27 00:21:39;;;;;;;12.63;6.60;;;5.60;88.50;;;;;;6245860;23;20004;-78
2021/10/27 00:24:04;;;;;;;14.55;7.53;;;5.60;88.70;;;;;;6245613;23;20001;-77
2021/10/27 00:26:30;;;;;;;11.15;7.03;;;5.60;88.50;;;;;;6245266;23;20370;-78
2021/10/27 00:28:56;;;;;;;15.77;6.85;;;5.60;88.00;;;;;;6219020;23;20007;-79
2021/10/27 00:31:22;;;;;;;11.52;7.10;;;5.60;88.30;;;;;;6245114;23;20014;-78
2021/10/27 00:33:47;;;;;;;13.43;7.20;;;5.60;88.50;;;;;;6248056;23;19996;-78
2021/10/27 00:36:13;;;;;;;14.50;7.45;;;5.60;88.30;;;;;;6248404;23;20007;-78
2021/10/27 00:38:39;;;;;;;19.55;8.32;;;5.70;87.80;;;;;;6246102;23;20011;-78
2021/10/27 00:41:08;;;;;;;14.13;7.43;;;5.70;88.20;;;;;;6245170;23;20067;-77
2021/10/27 00:43:34;;;;;;;15.85;6.35;;;5.70;88.40;;;;;;6245075;23;20008;-78
2021/10/27 00:46:00;;;;;;;14.00;7.40;;;5.60;88.80;;;;;;6244991;23;19996;-78
2021/10/27 00:48:26;;;;;;;16.60;6.30;;;5.60;88.60;;;;;;6248902;23;20028;-79
2021/10/27 00:50:52;;;;;;;12.30;7.15;;;5.50;88.70;;;;;;6247711;23;20011;-77
2021/10/27 00:53:18;;;;;;;11.77;6.88;;;5.50;88.40;;;;;;6248612;23;20000;-79
2021/10/27 00:55:45;;;;;;;14.27;7.25;;;5.50;88.20;;;;;;6247779;23;20265;-78
2021/10/27 00:58:10;;;;;;;16.17;8.18;;;5.50;88.50;;;;;;6246234;23;20039;-77
2021/10/27 01:00:36;;;;;;;11.57;6.80;;;5.50;87.90;;;;;;6248860;23;19996;-77
2021/10/27 01:03:02;;;;;;;15.30;7.55;;;5.50;87.90;;;;;;6248205;23;20046;-79
2021/10/27 01:05:29;;;;;;;13.98;7.50;;;5.60;87.50;;;;;;6221827;23;20004;-78
2021/10/27 01:07:55;;;;;;;10.77;6.72;;;5.70;87.80;;;;;;6247683;23;19996;-78
2021/10/27 01:10:21;;;;;;;17.30;7.30;;;5.60;87.90;;;;;;6221676;23;20036;-79
2021/10/27 01:12:47;;;;;;;14.50;7.45;;;5.70;87.80;;;;;;6245881;22;20147;-77
2021/10/27 01:15:13;;;;;;;13.10;7.32;;;5.60;88.00;;;;;;6248169;23;20006;-78
2021/10/27 01:17:39;;;;;;;15.35;7.30;;;5.60;87.90;;;;;;6247709;23;20031;-78
2021/10/27 01:20:05;;;;;;;13.68;6.97;;;5.60;87.90;;;;;;6248471;23;20384;-78
2021/10/27 01:22:34;;;;;;;12.15;7.25;;;5.60;88.00;;;;;;6247552;23;20032;-77
2021/10/27 01:25:00;;;;;;;14.38;8.00;;;5.50;87.80;;;;;;6220892;23;20269;-78
2021/10/27 01:27:27;;;;;;;18.48;8.15;;;5.60;87.70;;;;;;6246049;23;20028;-77
2021/10/27 01:29:53;;;;;;;16.88;7.95;;;5.50;88.30;;;;;;6220452;23;20057;-76
2021/10/27 01:32:30;;;;;;;18.92;8.73;;;5.50;88.00;;;;;;6248285;23;20042;-76
2021/10/27 01:34:57;;;;;;;14.18;7.70;;;5.60;87.50;;;;;;6221014;23;20058;-76
2021/10/27 01:37:24;;;;;;;15.70;8.55;;;5.70;87.20;;;;;;6223293;23;20008;-76
2021/10/27 01:39:51;;;;;;;13.65;7.70;;;5.80;87.60;;;;;;6247615;23;20004;-78
2021/10/27 01:42:17;;;;;;;13.00;7.72;;;5.80;88.00;;;;;;6246414;23;20000;-78
2021/10/27 01:44:42;;;;;;;14.05;7.32;;;5.70;88.50;;;;;;6247945;23;20001;-79
2021/10/27 01:47:08;;;;;;;14.93;8.88;;;5.60;88.70;;;;;;6247441;23;20008;-78
2021/10/27 01:49:34;;;;;;;12.90;7.72;;;5.60;88.40;;;;;;6221506;23;20007;-78
2021/10/27 01:52:01;;;;;;;15.43;8.35;;;5.50;88.30;;;;;;6219877;23;20008;-77
2021/10/27 01:54:27;;;;;;;11.82;7.70;;;5.50;88.10;;;;;;6246898;23;20039;-78
2021/10/27 01:56:53;;;;;;;14.77;8.30;;;5.40;88.30;;;;;;6220231;23;20015;-78
2021/10/27 01:59:21;;;;;;;15.27;7.70;;;5.40;88.10;;;;;;6219901;23;20106;-78
2021/10/27 02:01:48;;;;;;;20.23;8.77;;;5.40;87.70;;;;;;6246226;23;20012;-78
2021/10/27 02:04:14;;;;;;;13.73;7.05;;;5.40;88.10;;;;;;6219743;23;20324;-78
2021/10/27 02:06:40;;;;;;;13.38;7.13;;;5.50;87.80;;;;;;6220222;23;20008;-78
2021/10/27 02:09:06;;;;;;;13.55;7.22;;;5.40;88.00;;;;;;6246804;23;20007;-77
2021/10/27 02:11:31;;;;;;;14.80;8.25;;;5.40;87.60;;;;;;6244869;23;20000;-77
2021/10/27 02:13:57;;;;;;;17.77;9.07;;;5.50;87.40;;;;;;6246224;23;20150;-77
2021/10/27 02:16:23;;;;;;;14.45;7.70;;;5.50;87.80;;;;;;6219891;23;20274;-76
2021/10/27 02:18:52;;;;;;;15.07;7.78;;;5.40;88.20;;;;;;6247299;23;20004;-78
2021/10/27 02:21:18;;;;;;;13.63;7.60;;;5.50;87.80;;;;;;6247482;23;20003;-77
2021/10/27 02:23:44;;;;;;;15.23;6.78;;;5.50;87.70;;;;;;6246166;23;19999;-79
2021/10/27 02:26:10;;;;;;;14.38;6.95;;;5.40;88.20;;;;;;6219666;23;20027;-77
2021/10/27 02:28:36;;;;;;;14.27;7.35;;;5.40;88.00;;;;;;6220290;23;20378;-77
2021/10/27 02:31:02;;;;;;;19.30;9.38;;;5.50;87.80;;;;;;6247084;23;20358;-77
2021/10/27 02:33:28;;;;;;;14.90;7.90;;;5.40;88.30;;;;;;6220766;23;20008;-78
2021/10/27 02:35:54;;;;;;;18.08;7.95;;;5.40;88.20;;;;;;6221827;23;20436;-77
2021/10/27 02:38:19;;;;;;;15.75;6.93;;;5.30;88.20;;;;;;6221675;23;20008;-78
2021/10/27 02:40:49;;;;;;;12.85;6.30;;;5.30;88.30;;;;;;6248627;23;20000;-78
2021/10/27 02:43:15;;;;;;;14.60;6.45;;;5.20;88.50;;;;;;6245609;23;20007;-78
2021/10/27 02:45:43;;;;;;;12.93;6.70;;;5.10;88.70;;;;;;6247451;23;20006;-78
2021/10/27 02:48:09;;;;;;;10.43;6.35;;;5.00;88.20;;;;;;6219803;23;20007;-77
2021/10/27 02:50:35;;;;;;;13.48;6.57;;;5.10;87.60;;;;;;6219641;23;20001;-77
2021/10/27 02:53:01;;;;;;;15.15;7.30;;;5.10;87.80;;;;;;6220567;23;20008;-79
2021/10/27 02:55:30;;;;;;;12.82;7.43;;;5.10;87.90;;;;;;6220181;23;20008;-78
2021/10/27 02:57:57;;;;;;;12.48;6.88;;;5.10;87.60;;;;;;6245396;23;20357;-78
2021/10/27 03:00:23;;;;;;;11.30;6.82;;;5.10;88.00;;;;;;6245755;23;20083;-78
2021/10/27 03:02:49;;;;;;;11.35;6.88;;;5.10;87.80;;;;;;6219090;23;20047;-78
2021/10/27 03:05:14;;;;;;;14.48;7.22;;;5.10;87.90;;;;;;6245827;23;20000;-78
2021/10/27 03:07:40;;;;;;;14.68;7.80;;;5.20;87.60;;;;;;6219221;23;20011;-78
2021/10/27 03:10:06;;;;;;;12.55;7.55;;;5.20;87.70;;;;;;6219621;23;20004;-78
2021/10/27 03:12:32;;;;;;;16.70;8.02;;;5.10;87.80;;;;;;6243727;23;20280;-79
2021/10/27 03:14:58;;;;;;;12.90;7.32;;;5.20;87.50;;;;;;6246842;23;20075;-78
2021/10/27 03:17:23;;;;;;;16.38;8.63;;;5.20;87.60;;;;;;6246923;23;20000;-79
2021/10/27 03:19:49;;;;;;;13.85;7.72;;;5.20;87.50;;;;;;6246504;23;20011;-77
2021/10/27 03:22:15;;;;;;;14.82;6.45;;;5.10;88.00;;;;;;6246921;23;20004;-78
2021/10/27 03:24:40;;;;;;;14.93;7.55;;;5.00;88.00;;;;;;6245590;23;20045;-78
2021/10/27 03:27:06;;;;;;;14.73;7.15;;;5.00;87.80;;;;;;6218267;23;20047;-79
2021/10/27 03:29:32;;;;;;;11.77;6.88;;;5.10;87.20;;;;;;6247139;23;19996;-78
2021/10/27 03:31:57;;;;;;;11.60;7.18;;;5.10;87.50;;;;;;6247829;23;20011;-78
2021/10/27 03:34:23;;;;;;;13.63;7.60;;;5.10;87.30;;;;;;6247103;23;20004;-78
2021/10/27 03:36:49;;;;;;;13.85;7.28;;;5.10;87.70;;;;;;6221690;23;20412;-77
2021/10/27 03:39:14;;;;;;;9.55;5.47;;;4.90;88.70;;;;;;6247457;23;20427;-78
2021/10/27 03:41:41;;;;;;;15.52;7.05;;;4.80;89.10;;;;;;6219960;23;20008;-78
2021/10/27 03:44:07;;;;;;;8.90;4.47;;;4.60;88.80;;;;;;6248432;23;20004;-79
2021/10/27 03:46:33;;;;;;;9.35;5.25;;;4.50;88.40;;;;;;6245630;23;20366;-78
2021/10/27 03:48:59;;;;;;;11.30;7.20;;;4.40;89.00;;;;;;6246047;23;20477;-78
2021/10/27 03:51:26;;;;;;;9.65;5.30;;;4.20;89.60;;;;;;6246529;23;20058;-78
2021/10/27 03:53:51;;;;;;;13.10;6.45;;;4.10;89.70;;;;;;6245667;23;20000;-78
2021/10/27 03:56:18;;;;;;;14.60;6.55;;;4.00;89.00;;;;;;6244399;23;20023;-77
2021/10/27 03:58:44;;;;;;;12.32;5.28;;;4.00;88.40;;;;;;6246878;23;20031;-79
2021/10/27 04:01:09;;;;;;;11.27;5.57;;;3.90;88.60;;;;;;6220318;23;20012;-79
2021/10/27 04:03:41;;;;;;;10.30;5.85;;;3.90;88.20;;;;;;6219507;23;20321;-77
2021/10/27 04:06:06;;;;;;;13.95;7.13;;;3.90;88.50;;;;;;6245594;23;20000;-79
2021/10/27 04:08:38;;;;;;;18.50;8.82;;;3.90;88.20;;;;;;6246111;23;20134;-78
2021/10/27 04:11:04;;;;;;;15.63;6.88;;;3.90;88.50;;;;;;6243984;23;20008;-78
2021/10/27 04:13:30;;;;;;;9.43;5.15;;;3.80;88.90;;;;;;6218516;23;20016;-79
2021/10/27 04:15:55;;;;;;;13.77;8.30;;;3.80;88.00;;;;;;6246131;23;20000;-78
2021/10/27 04:18:21;;;;;;;14.30;8.23;;;3.80;88.10;;;;;;6219683;23;20054;-78
2021/10/27 04:20:47;;;;;;;14.13;8.02;;;3.90;88.40;;;;;;6245458;23;20004;-78
2021/10/27 04:23:13;;;;;;;8.43;5.53;;;3.70;89.90;;;;;;6220092;23;20007;-76
2021/10/27 04:25:39;;;;;;;14.57;7.25;;;3.50;89.80;;;;;;6247873;23;20001;-76
2021/10/27 04:28:05;;;;;;;11.02;6.28;;;3.60;88.60;;;;;;6246806;23;19996;-76
2021/10/27 04:30:32;;;;;;;12.20;6.93;;;3.70;87.80;;;;;;6248941;23;19996;-76
2021/10/27 04:32:58;;;;;;;11.60;5.93;;;3.70;88.00;;;;;;6249087;23;20015;-78
2021/10/27 04:35:25;;;;;;;10.57;5.75;;;3.80;88.10;;;;;;6250640;23;19992;-79
2021/10/27 04:37:54;;;;;;;9.77;4.65;;;3.80;88.80;;;;;;6249989;23;20003;-78
2021/10/27 04:40:20;;;;;;;8.65;4.38;;;3.70;88.50;;;;;;6223734;23;20000;-78
2021/10/27 04:42:47;;;;;;;10.80;4.18;;;3.80;87.60;;;;;;6222649;23;20011;-78
2021/10/27 04:45:13;;;;;;;14.80;6.55;;;3.90;87.10;;;;;;6223876;23;20436;-77
2021/10/27 04:47:41;;;;;;;48.42;21.98;;;4.00;87.70;;;;;;6250427;23;20277;-79
2021/10/27 04:50:08;;;;;;;50.25;19.25;;;3.90;89.40;;;;;;6250262;23;20004;-76
2021/10/27 04:52:35;;;;;;;108.20;35.28;;;3.70;89.70;;;;;;6250727;23;20006;-78
2021/10/27 04:55:00;;;;;;;157.27;49.58;;;3.50;89.70;;;;;;6223055;23;20004;-77
2021/10/27 04:57:26;;;;;;;86.32;30.15;;;3.30;90.60;;;;;;6248893;23;20004;-77
2021/10/27 04:59:52;;;;;;;28.23;10.43;;;3.20;90.00;;;;;;6250426;23;20007;-77
2021/10/27 05:02:20;;;;;;;12.60;6.00;;;3.10;89.30;;;;;;6249405;23;20004;-77
2021/10/27 05:04:46;;;;;;;13.27;6.65;;;3.20;88.20;;;;;;6250380;23;20003;-77
2021/10/27 05:07:14;;;;;;;16.80;7.03;;;3.50;87.20;;;;;;6249115;23;20098;-77
2021/10/27 05:09:41;;;;;;;18.17;7.05;;;3.70;87.50;;;;;;6222074;23;20000;-77
2021/10/27 05:12:07;;;;;;;12.43;6.35;;;3.90;87.30;;;;;;6248653;23;20019;-78
2021/10/27 05:14:36;;;;;;;18.67;7.10;;;4.00;87.70;;;;;;6250315;23;20027;-78
2021/10/27 05:17:02;;;;;;;10.50;6.35;;;4.10;87.90;;;;;;6250606;23;20365;-77
2021/10/27 05:19:27;;;;;;;11.07;5.53;;;4.20;87.50;;;;;;6250397;23;19996;-77
2021/10/27 05:21:53;;;;;;;13.85;6.78;;;4.30;87.30;;;;;;6223270;23;20090;-78
2021/10/27 05:24:21;;;;;;;14.38;7.18;;;4.40;87.10;;;;;;6250838;23;20016;-78
2021/10/27 05:26:47;;;;;;;11.77;6.32;;;4.60;87.00;;;;;;6249030;23;20004;-79
2021/10/27 05:29:13;;;;;;;16.40;7.63;;;4.70;87.20;;;;;;6223449;23;20005;-78
2021/10/27 05:31:39;;;;;;;14.10;6.85;;;4.70;87.50;;;;;;6223998;23;20274;-78
2021/10/27 05:34:04;;;;;;;11.90;5.90;;;4.60;87.50;;;;;;6250016;23;20000;-78
2021/10/27 05:36:31;;;;;;;8.90;5.25;;;4.60;87.40;;;;;;6223533;23;20138;-78
2021/10/27 05:38:57;;;;;;;13.07;6.80;;;4.60;87.50;;;;;;6250421;23;20321;-78
2021/10/27 05:41:23;;;;;;;12.43;5.97;;;4.60;87.20;;;;;;6248670;23;20038;-78
2021/10/27 05:43:48;;;;;;;14.10;7.13;;;4.60;87.30;;;;;;6250120;23;20301;-78
2021/10/27 05:46:17;;;;;;;12.77;7.10;;;4.60;87.10;;;;;;6250053;23;20291;-78
2021/10/27 05:48:46;;;;;;;13.48;7.35;;;4.60;87.50;;;;;;6249972;23;20019;-79
2021/10/27 05:51:23;;;;;;;13.93;7.93;;;4.60;87.10;;;;;;6250211;23;20026;-79
2021/10/27 05:56:33;;;;;;;13.55;7.40;;;4.90;86.80;;;;;;6248587;23;20062;-78
2021/10/27 05:58:59;;;;;;;12.98;6.32;;;4.90;87.00;;;;;;6250264;23;20008;-78
2021/10/27 06:01:25;;;;;;;16.08;7.22;;;4.90;87.00;;;;;;6249816;23;20030;-78
2021/10/27 06:03:50;;;;;;;11.35;6.75;;;4.80;87.20;;;;;;6250109;23;20031;-78
2021/10/27 06:06:16;;;;;;;17.00;6.53;;;4.80;87.50;;;;;;6250193;23;20007;-79
2021/10/27 06:08:42;;;;;;;12.38;6.30;;;4.80;87.30;;;;;;6250082;23;20074;-78
2021/10/27 06:11:12;;;;;;;11.52;5.75;;;4.80;87.20;;;;;;6221828;23;20087;-79
2021/10/27 06:13:46;;;;;;;13.80;6.30;;;4.80;87.30;;;;;;6249470;23;20047;-79
2021/10/27 06:16:12;;;;;;;12.55;6.00;;;4.90;87.00;;;;;;6249835;23;20362;-79
2021/10/27 06:18:39;;;;;;;11.40;5.70;;;4.90;87.20;;;;;;6249897;23;20034;-78
2021/10/27 06:21:07;;;;;;;9.48;5.53;;;4.90;87.10;;;;;;6223137;23;20015;-78
2021/10/27 06:23:32;;;;;;;10.63;5.82;;;5.00;87.10;;;;;;6249979;23;20479;-79
2021/10/27 06:25:59;;;;;;;9.98;5.95;;;5.00;87.00;;;;;;6248520;23;20058;-76
2021/10/27 06:28:28;;;;;;;11.57;6.60;;;5.00;87.40;;;;;;6223200;23;20362;-77
2021/10/27 06:30:58;;;;;;;12.70;6.75;;;5.00;87.20;;;;;;6223326;23;20004;-78
2021/10/27 06:33:48;;;;;;;13.57;6.45;;;5.10;87.00;;;;;;6249829;23;20083;-78
2021/10/27 06:36:24;;;;;;;17.05;8.25;;;5.20;87.00;;;;;;6249581;23;20011;-78
2021/10/27 06:46:56;;;;;;;15.50;8.27;;;5.40;87.10;;;;;;6249300;23;20040;-79
2021/10/27 06:49:24;;;;;;;16.42;8.98;;;5.40;87.60;;;;;;6249584;23;20004;-79
2021/10/27 06:51:50;;;;;;;13.63;8.02;;;5.40;87.50;;;;;;6249538;23;20381;-78
2021/10/27 06:54:16;;;;;;;17.55;8.15;;;5.50;87.70;;;;;;6222737;23;20061;-78
2021/10/27 06:56:42;;;;;;;14.88;7.38;;;5.50;87.60;;;;;;6247938;23;20079;-78
2021/10/27 06:59:13;;;;;;;18.30;8.48;;;5.60;87.60;;;;;;6222686;23;20087;-78
2021/10/27 07:17:15;;;;;;;11.77;6.93;;;6.10;88.20;;;;;;6249337;23;20067;-77
2021/10/27 07:19:43;;;;;;;11.55;7.13;;;6.20;88.40;;;;;;6248976;23;20007;-76
2021/10/27 07:22:13;;;;;;;10.82;6.38;;;6.30;88.40;;;;;;6249040;23;20011;-76
2021/10/27 07:24:39;;;;;;;14.25;6.47;;;6.40;88.50;;;;;;6249256;23;20000;-76
2021/10/27 07:27:07;;;;;;;11.80;6.97;;;6.50;88.50;;;;;;6247730;23;20046;-76
2021/10/27 07:29:32;;;;;;;10.82;6.32;;;6.60;88.80;;;;;;6249132;23;19997;-78
2021/10/27 07:31:59;;;;;;;14.13;7.10;;;6.70;88.40;;;;;;6248574;23;20004;-79
2021/10/27 07:34:32;;;;;;;11.75;6.63;;;7.00;88.30;;;;;;6248961;23;20000;-78
2021/10/27 07:42:18;;;;;;;16.77;9.88;;;7.50;89.30;;;;;;6257708;23;20008;-78
2021/10/27 07:44:44;;;;;;;16.77;10.45;;;7.40;90.10;;;;;;6248737;23;20023;-77
2021/10/27 07:47:11;;;;;;;15.93;10.40;;;7.40;89.50;;;;;;6249173;23;19997;-78
2021/10/27 07:49:37;;;;;;;19.15;10.90;;;7.70;88.40;;;;;;6222355;23;20277;-78
2021/10/27 07:52:04;;;;;;;17.20;10.70;;;7.90;88.00;;;;;;6248805;23;20046;-78
2021/10/27 07:54:30;;;;;;;14.40;8.32;;;8.70;85.80;;;;;;6222402;23;20439;-78
2021/10/27 07:56:55;;;;;;;13.68;7.10;;;9.50;86.30;;;;;;6247565;23;20012;-79
2021/10/27 07:59:21;;;;;;;12.50;6.88;;;9.80;85.90;;;;;;6248822;23;20034;-78
2021/10/27 08:01:47;;;;;;;11.13;6.05;;;10.40;86.80;;;;;;6248736;23;20000;-78
2021/10/27 08:04:13;;;;;;;8.70;5.13;;;11.10;89.70;;;;;;6249141;23;20004;-78
2021/10/27 08:06:40;;;;;;;10.23;5.15;;;12.30;92.50;;;;;;6222252;23;20005;-78
2021/10/27 08:09:05;;;;;;;13.60;5.63;;;12.30;98.00;;;;;;6222216;23;20079;-78
2021/10/27 08:11:32;;;;;;;10.80;5.05;;;12.30;98.00;;;;;;6247363;23;20357;-79
2021/10/27 08:13:57;;;;;;;11.35;6.00;;;11.80;98.00;;;;;;6248220;23;20016;-79
2021/10/27 08:16:23;;;;;;;12.00;6.22;;;11.30;98.00;;;;;;6249087;23;20004;-78
2021/10/27 08:18:50;;;;;;;10.98;6.20;;;11.10;98.00;;;;;;6222275;23;20008;-79
2021/10/27 08:21:16;;;;;;;10.23;5.65;;;11.30;98.00;;;;;;6248937;23;20008;-78
2021/10/27 08:23:43;;;;;;;9.70;5.47;;;11.40;98.00;;;;;;6222539;23;20087;-78
2021/10/27 08:26:13;;;;;;;10.43;5.85;;;11.60;98.00;;;;;;6247570;23;20087;-79
2021/10/27 08:28:41;;;;;;;12.40;6.25;;;12.20;98.00;;;;;;6222364;23;20000;-77
2021/10/27 08:34:05;;;;;;;12.85;5.72;;;12.90;97.50;;;;;;6214261;23;20243;-78
2021/10/27 08:36:31;;;;;;;9.90;5.30;;;13.20;97.10;;;;;;6248763;23;20004;-78
2021/10/27 08:38:57;;;;;;;9.90;5.70;;;14.00;98.00;;;;;;6248917;23;20030;-77
2021/10/27 08:41:24;;;;;;;12.75;6.55;;;14.20;93.50;;;;;;6220484;23;20008;-77
2021/10/27 08:43:50;;;;;;;12.45;6.43;;;14.20;93.60;;;;;;6249228;23;20004;-78
2021/10/27 08:46:17;;;;;;;11.70;6.82;;;14.10;92.90;;;;;;6249034;23;19996;-78
2021/10/27 08:48:48;;;;;;;11.85;6.35;;;13.60;92.80;;;;;;6248848;23;20006;-78
2021/10/27 08:51:15;;;;;;;12.50;6.22;;;13.80;94.90;;;;;;6248654;23;20001;-79
2021/10/27 08:53:41;;;;;;;11.75;6.88;;;14.10;93.90;;;;;;6248710;23;20050;-78
2021/10/27 08:56:07;;;;;;;12.88;6.07;;;14.60;93.60;;;;;;6247350;23;20365;-77
2021/10/27 08:58:46;;;;;;;12.20;5.95;;;15.00;91.80;;;;;;6248903;23;20006;-79
2021/10/27 09:01:32;;;;;;;11.25;6.45;;;15.30;91.50;;;;;;6248667;23;20007;-79
2021/10/27 09:06:42;;;;;;;12.77;6.75;;;15.40;91.90;;;;;;6249178;23;20015;-78
2021/10/27 09:35:39;;;;;;;10.40;5.00;;;18.50;76.20;;;;;;6250256;23;20084;-77
2021/10/27 09:38:29;;;;;;;9.77;5.40;;;18.80;75.40;;;;;;6250218;23;19996;-78
2021/10/27 10:06:25;;;;;;;9.70;5.28;;;17.90;78.40;;;;;;6250094;23;20014;-78
2021/10/27 10:08:52;;;;;;;7.05;4.32;;;18.00;77.30;;;;;;6250231;23;20071;-78
2021/10/27 10:11:22;;;;;;;11.02;4.78;;;18.10;77.40;;;;;;6248184;23;20011;-76
2021/10/27 10:13:53;;;;;;;8.88;4.65;;;18.00;77.30;;;;;;6249946;23;20020;-77
2021/10/27 10:16:19;;;;;;;8.43;4.40;;;18.10;76.80;;;;;;6250081;23;20023;-78
2021/10/27 10:18:46;;;;;;;8.77;4.55;;;17.40;78.10;;;;;;6249703;23;20057;-77
2021/10/27 10:21:13;;;;;;;7.45;4.20;;;17.20;79.80;;;;;;6223049;23;20012;-77
2021/10/27 10:23:39;;;;;;;8.05;4.80;;;17.20;79.50;;;;;;6249811;23;20004;-77
2021/10/27 10:26:08;;;;;;;8.75;4.40;;;17.00;79.20;;;;;;6248302;23;20369;-76
2021/10/27 10:28:42;;;;;;;7.70;4.35;;;17.20;79.50;;;;;;6250071;23;20274;-77
2021/10/27 10:31:09;;;;;;;9.10;4.90;;;17.60;78.20;;;;;;6249867;23;20026;-77
2021/10/27 10:33:40;;;;;;;7.55;4.25;;;17.80;77.30;;;;;;6249605;23;20000;-77
2021/10/27 10:36:15;;;;;;;9.23;4.82;;;17.40;79.00;;;;;;6250171;23;20320;-77
2021/10/27 10:41:58;;;;;;;8.27;4.70;;;16.30;81.50;;;;;;6258809;23;20012;-77
2021/10/27 11:38:13;;;;;;;10.23;4.60;;;20.60;72.10;;;;;;6279210;22;20018;-77
2021/10/27 11:40:42;;;;;;;10.45;5.03;;;20.60;72.20;;;;;;6278651;22;20234;-75
2021/10/27 11:48:28;;;;;;;9.70;4.43;;;21.10;70.40;;;;;;6289961;22;20061;-77
2021/10/27 11:50:54;;;;;;;8.13;4.03;;;21.10;69.60;;;;;;6279542;22;20319;-77
2021/10/27 11:53:31;;;;;;;8.93;4.80;;;20.60;70.60;;;;;;6279121;22;20034;-77
2021/10/27 11:56:09;;;;;;;10.10;3.67;;;20.50;71.40;;;;;;6277657;22;20016;-77
2021/10/27 11:58:38;;;;;;;7.35;3.70;;;20.60;72.40;;;;;;6279404;22;20042;-77
2021/10/27 12:01:05;;;;;;;8.35;3.90;;;20.80;70.90;;;;;;6251927;22;20012;-77
2021/10/27 12:03:43;;;;;;;8.32;4.00;;;20.80;69.00;;;;;;6279076;22;19996;-78
2021/10/27 12:06:32;;;;;;;7.95;4.15;;;20.50;72.40;;;;;;6252736;22;20029;-77
2021/10/27 12:09:26;;;;;;;10.48;3.90;;;20.60;70.10;;;;;;6278218;22;19996;-76
2021/10/27 12:15:20;;;;;;;9.23;4.38;;;20.60;70.50;;;;;;6290003;22;20418;-77
2021/10/27 12:20:34;;;;;;;7.10;3.95;;;19.60;74.40;;;;;;6289317;22;20007;-77
2021/10/27 12:23:00;;;;;;;7.65;3.80;;;20.00;73.20;;;;;;6279184;22;20061;-77
2021/10/27 12:25:27;;;;;;;9.23;4.07;;;20.60;69.10;;;;;;6279131;22;20000;-77
2021/10/27 12:28:00;;;;;;;6.72;3.25;;;20.60;69.30;;;;;;6277525;22;20023;-77
2021/10/27 12:30:25;;;;;;;8.57;5.13;;;20.40;69.80;;;;;;6279619;22;20237;-75
2021/10/27 12:32:53;;;;;;;8.60;4.78;;;20.20;71.90;;;;;;6279043;22;20007;-77
2021/10/27 12:35:23;;;;;;;8.52;5.53;;;19.60;72.30;;;;;;6279491;22;20024;-77
2021/10/27 12:37:56;;;;;;;11.02;6.07;;;19.50;74.70;;;;;;6279224;22;20004;-76
2021/10/27 12:40:27;;;;;;;9.30;6.15;;;19.30;74.90;;;;;;6278904;22;20007;-77
2021/10/27 12:43:02;;;;;;;13.18;6.85;;;18.70;76.90;;;;;;6250397;22;20095;-76
2021/10/27 12:45:48;;;;;;;;;;;18.40;78.20;;;;;;6281138;22;19996;-77
2021/10/27 12:48:24;;;;;;;10.07;6.20;;;18.20;78.50;;;;;;6254134;22;19900;-76
2021/10/27 12:51:01;;;;;;;10.25;5.88;;;17.50;80.40;;;;;;6253864;22;20004;-77
2021/10/27 12:53:39;;;;;;;12.18;6.50;;;17.60;80.40;;;;;;6281331;22;20007;-75
2021/10/27 12:56:07;;;;;;;10.73;6.20;;;17.70;80.10;;;;;;6246804;23;20023;-76
2021/10/27 12:58:48;;;;;;;10.65;6.28;;;17.70;79.40;;;;;;6249046;23;19996;-76
2021/10/27 13:02:08;;;;;;;10.25;5.95;;;17.60;80.60;;;;;;6250047;22;20356;-77
2021/10/27 13:04:30;;;;;;;13.73;7.35;;;17.60;79.50;;;;;;6228192;23;20326;-77
2021/10/27 13:07:01;;;;;;;12.18;7.50;;;17.50;79.30;;;;;;6247585;23;20067;-76
2021/10/27 13:15:12;;;;;;;;;;;17.10;80.20;;;;;;6247420;23;20093;-76
2021/10/27 13:18:09;;;;;;;14.63;7.63;;;17.00;81.20;;;;;;6247003;23;19974;-77
2021/10/27 13:20:58;;;;;;;;;;;16.60;81.90;;;;;;6247724;23;20380;-77
2021/10/27 13:31:35;;;;;;;11.35;7.28;;;16.80;82.50;;;;;;6248190;23;20384;-77
2021/10/27 13:34:00;;;;;;;13.02;6.97;;;16.50;82.10;;;;;;6245326;23;20036;-76
2021/10/27 13:36:26;;;;;;;11.88;7.03;;;16.40;83.90;;;;;;6246993;23;19996;-77
2021/10/27 13:38:54;;;;;;;12.27;7.00;;;16.50;84.20;;;;;;6247368;23;20040;-76
2021/10/27 13:41:20;;;;;;;13.63;7.22;;;16.70;82.80;;;;;;6245651;23;20024;-76
2021/10/27 14:07:58;;;;;;;;;;;16.30;83.10;;;;;;6281493;22;20038;-76
2021/10/27 14:10:46;;;;;;;10.38;5.60;;;16.50;82.90;;;;;;6280451;22;19906;-76
2021/10/27 14:18:51;;;;;;;9.23;4.72;;;16.60;83.10;;;;;;6280553;22;20015;-78
2021/10/27 15:21:10;;;;;;;8.13;4.18;;;17.80;77.40;;;;;;6279520;22;20061;-78
2021/10/27 15:45:34;;;;;;;5.90;3.20;;;16.20;82.70;;;;;;6279031;22;20042;-76
2021/10/27 15:53:13;;;;;;;6.28;2.90;;;15.90;83.80;;;;;;6290103;22;20069;-76
2021/10/27 15:55:39;;;;;;;6.60;2.80;;;15.70;84.00;;;;;;6279092;22;20040;-76
2021/10/27 15:58:05;;;;;;;6.22;3.17;;;15.10;85.10;;;;;;6272187;22;20357;-75
2021/10/27 16:00:31;;;;;;;10.00;3.50;;;14.30;87.20;;;;;;6278964;22;20038;-76
2021/10/27 16:02:56;;;;;;;9.75;3.55;;;13.60;89.40;;;;;;6278744;22;20004;-76
2021/10/27 16:05:25;;;;;;;6.85;3.58;;;12.90;91.50;;;;;;6251678;22;20008;-76
2021/10/27 16:07:55;;;;;;;8.13;3.78;;;12.30;93.10;;;;;;6278908;22;20004;-76
2021/10/27 16:10:22;;;;;;;6.95;3.90;;;11.90;94.20;;;;;;6278790;22;20071;-76
2021/10/27 16:12:47;;;;;;;8.07;3.92;;;11.50;95.30;;;;;;6250721;22;20003;-76
2021/10/27 16:15:34;;;;;;;8.65;3.97;;;11.20;96.10;;;;;;6278401;22;20003;-76
2021/10/27 16:18:01;;;;;;;8.15;4.07;;;10.90;96.70;;;;;;6278744;22;20361;-76
2021/10/27 16:20:27;;;;;;;7.82;4.43;;;10.60;97.00;;;;;;6253829;22;20010;-77
2021/10/27 16:22:52;;;;;;;8.95;4.30;;;10.40;97.30;;;;;;6254233;22;20091;-77
2021/10/27 16:25:18;;;;;;;9.23;4.88;;;10.30;97.50;;;;;;6254183;22;20004;-77
2021/10/27 16:27:44;;;;;;;14.05;5.68;;;10.10;97.60;;;;;;6279404;22;20000;-77
2021/10/27 16:30:10;;;;;;;10.07;5.75;;;10.10;97.70;;;;;;6254379;22;20451;-76
2021/10/27 16:32:36;;;;;;;12.77;7.40;;;9.90;97.70;;;;;;6280915;22;20000;-75
2021/10/27 16:35:03;;;;;;;16.95;8.82;;;9.90;97.60;;;;;;6253809;22;20010;-75
2021/10/27 16:37:29;;;;;;;16.13;8.85;;;9.80;97.60;;;;;;6281134;22;20521;-75
2021/10/27 16:39:55;;;;;;;21.00;11.32;;;9.70;97.80;;;;;;6254214;22;20087;-76
2021/10/27 16:42:22;;;;;;;20.65;11.63;;;9.60;97.80;;;;;;6252289;22;20059;-76
2021/10/27 16:44:48;;;;;;;32.90;19.55;;;9.50;97.60;;;;;;6253813;22;20272;-76
2021/10/27 16:47:13;;;;;;;44.72;26.05;;;9.40;97.60;;;;;;6280719;22;20003;-75
2021/10/27 16:49:39;;;;;;;40.85;22.30;;;9.40;97.60;;;;;;6280566;22;20000;-77
2021/10/27 16:52:05;;;;;;;26.00;16.23;;;9.30;97.60;;;;;;6253836;22;20015;-76
2021/10/27 16:54:31;;;;;;;19.25;11.18;;;9.30;97.70;;;;;;6280637;22;20023;-76
2021/10/27 16:56:56;;;;;;;17.13;9.75;;;9.20;97.60;;;;;;6252608;22;20030;-76
2021/10/27 16:59:22;;;;;;;17.63;9.70;;;9.10;97.70;;;;;;6280696;22;20062;-77
2021/10/27 17:01:47;;;;;;;17.83;9.13;;;9.00;97.70;;;;;;6253213;22;20008;-77
2021/10/27 17:04:14;;;;;;;18.38;9.48;;;8.90;97.70;;;;;;6280268;22;20000;-75
2021/10/27 17:06:40;;;;;;;21.63;10.98;;;8.80;97.60;;;;;;6253756;22;20004;-77
2021/10/27 17:09:06;;;;;;;20.70;11.68;;;8.70;97.60;;;;;;6253284;22;20007;-77
2021/10/27 17:11:32;;;;;;;22.73;11.65;;;8.60;97.40;;;;;;6278700;22;20081;-76
2021/10/27 17:13:57;;;;;;;23.15;12.13;;;8.50;97.50;;;;;;6280542;22;20356;-76
2021/10/27 17:16:24;;;;;;;22.85;12.27;;;8.40;97.30;;;;;;6278271;22;20003;-77
2021/10/27 17:18:50;;;;;;;21.33;12.45;;;8.40;97.10;;;;;;6252987;22;20523;-76
2021/10/27 17:21:16;;;;;;;24.20;11.90;;;8.40;97.20;;;;;;6280879;22;20029;-76
2021/10/27 17:23:44;;;;;;;28.27;13.98;;;8.30;97.20;;;;;;6279096;22;20078;-77
2021/10/27 17:26:10;;;;;;;20.63;12.80;;;8.20;97.30;;;;;;6277784;22;20000;-76
2021/10/27 17:28:35;;;;;;;22.15;11.90;;;8.10;97.20;;;;;;6280418;22;19996;-77
2021/10/27 17:31:01;;;;;;;19.00;10.73;;;8.00;97.30;;;;;;6278953;22;20003;-76
2021/10/27 17:33:27;;;;;;;18.90;10.02;;;7.90;96.90;;;;;;6280078;22;20000;-78
2021/10/27 17:36:01;;;;;;;21.50;11.60;;;7.80;96.80;;;;;;6253327;22;20440;-77
2021/10/27 17:38:29;;;;;;;18.80;10.88;;;7.90;96.80;;;;;;6279965;22;20021;-77